sensor_id;sensor_type;location;lat;lon;timestamp;pressure;altitude;pressure_sealevel;temperature;humidity
13934;BME280;7039;52.168;9.866;2023-01-16T00:00:17;98844.50;;;6.14;71.90
13934;BME280;7039;52.168;9.866;2023-01-16T00:02:43;98833.47;;;6.10;71.83
13934;BME280;7039;52.168;9.866;2023-01-16T00:05:10;98828.00;;;6.00;71.69
13934;BME280;7039;52.168;9.866;2023-01-16T00:07:37;98839.31;;;6.14;71.63
13934;BME280;7039;52.168;9.866;2023-01-16T00:10:04;98844.88;;;6.22;71.64
13934;BME280;7039;52.168;9.866;2023-01-16T00:12:31;98829.13;;;6.11;71.76
13934;BME280;7039;52.168;9.866;2023-01-16T00:14:59;98829.97;;;6.11;71.76
13934;BME280;7039;52.168;9.866;2023-01-16T00:17:25;98836.88;;;6.11;71.74
13934;BME280;7039;52.168;9.866;2023-01-16T00:19:52;98827.00;;;6.17;71.90
13934;BME280;7039;52.168;9.866;2023-01-16T00:22:18;98827.00;;;6.17;71.88
13934;BME280;7039;52.168;9.866;2023-01-16T00:24:45;98825.28;;;6.18;71.73
13934;BME280;7039;52.168;9.866;2023-01-16T00:27:11;98801.03;;;6.04;71.91
13934;BME280;7039;52.168;9.866;2023-01-16T00:29:37;98812.97;;;6.07;72.06
13934;BME280;7039;52.168;9.866;2023-01-16T00:32:05;98805.34;;;6.04;72.33
13934;BME280;7039;52.168;9.866;2023-01-16T00:34:32;98795.31;;;6.14;72.21
13934;BME280;7039;52.168;9.866;2023-01-16T00:36:58;98786.03;;;5.95;72.65
13934;BME280;7039;52.168;9.866;2023-01-16T00:39:25;98779.28;;;5.93;72.77
13934;BME280;7039;52.168;9.866;2023-01-16T00:41:51;98783.75;;;6.05;72.70
13934;BME280;7039;52.168;9.866;2023-01-16T00:44:17;98777.03;;;5.86;73.02
13934;BME280;7039;52.168;9.866;2023-01-16T00:46:44;98773.03;;;5.81;72.99
13934;BME280;7039;52.168;9.866;2023-01-16T00:49:12;98758.88;;;5.72;73.49
13934;BME280;7039;52.168;9.866;2023-01-16T00:51:38;98766.47;;;5.75;73.62
13934;BME280;7039;52.168;9.866;2023-01-16T00:54:05;98765.44;;;5.78;73.46
13934;BME280;7039;52.168;9.866;2023-01-16T00:56:31;98774.53;;;5.85;73.25
13934;BME280;7039;52.168;9.866;2023-01-16T00:58:58;98775.06;;;5.90;73.16
13934;BME280;7039;52.168;9.866;2023-01-16T01:01:24;98771.75;;;5.88;73.38
13934;BME280;7039;52.168;9.866;2023-01-16T01:03:51;98778.84;;;6.00;73.21
13934;BME280;7039;52.168;9.866;2023-01-16T01:06:18;98777.56;;;6.07;73.79
13934;BME280;7039;52.168;9.866;2023-01-16T01:08:45;98777.66;;;5.90;75.36
13934;BME280;7039;52.168;9.866;2023-01-16T01:11:13;98773.00;;;5.97;74.92
13934;BME280;7039;52.168;9.866;2023-01-16T01:13:41;98768.84;;;6.09;74.90
13934;BME280;7039;52.168;9.866;2023-01-16T01:16:08;98771.28;;;5.97;75.00
13934;BME280;7039;52.168;9.866;2023-01-16T01:18:35;98767.31;;;5.90;75.99
13934;BME280;7039;52.168;9.866;2023-01-16T01:21:02;98767.75;;;5.98;75.78
13934;BME280;7039;52.168;9.866;2023-01-16T01:23:30;98769.22;;;6.02;75.84
13934;BME280;7039;52.168;9.866;2023-01-16T01:25:56;98772.25;;;5.95;75.92
13934;BME280;7039;52.168;9.866;2023-01-16T01:28:23;98762.22;;;6.04;75.81
13934;BME280;7039;52.168;9.866;2023-01-16T01:30:49;98766.38;;;6.21;75.53
13934;BME280;7039;52.168;9.866;2023-01-16T01:33:15;98761.47;;;6.31;74.83
13934;BME280;7039;52.168;9.866;2023-01-16T01:35:42;98754.06;;;6.11;75.76
13934;BME280;7039;52.168;9.866;2023-01-16T01:38:08;98737.44;;;6.00;75.83
13934;BME280;7039;52.168;9.866;2023-01-16T01:40:36;98737.34;;;6.02;75.98
13934;BME280;7039;52.168;9.866;2023-01-16T01:43:03;98735.88;;;5.98;75.69
13934;BME280;7039;52.168;9.866;2023-01-16T01:45:30;98734.31;;;6.10;75.51
13934;BME280;7039;52.168;9.866;2023-01-16T01:48:02;98730.03;;;6.09;75.84
13934;BME280;7039;52.168;9.866;2023-01-16T01:50:35;98717.91;;;5.95;75.67
13934;BME280;7039;52.168;9.866;2023-01-16T01:53:07;98724.03;;;6.08;75.35
13934;BME280;7039;52.168;9.866;2023-01-16T01:55:36;98718.22;;;6.04;75.79
13934;BME280;7039;52.168;9.866;2023-01-16T01:58:05;98711.75;;;6.12;75.35
13934;BME280;7039;52.168;9.866;2023-01-16T02:00:32;98713.69;;;6.08;75.39
13934;BME280;7039;52.168;9.866;2023-01-16T02:03:03;98715.09;;;6.14;75.37
13934;BME280;7039;52.168;9.866;2023-01-16T02:05:34;98707.22;;;6.01;75.48
13934;BME280;7039;52.168;9.866;2023-01-16T02:08:04;98702.97;;;6.00;75.63
13934;BME280;7039;52.168;9.866;2023-01-16T02:10:36;98702.88;;;6.16;75.59
13934;BME280;7039;52.168;9.866;2023-01-16T02:13:04;98693.72;;;5.96;75.93
13934;BME280;7039;52.168;9.866;2023-01-16T02:15:30;98689.53;;;5.93;76.21
13934;BME280;7039;52.168;9.866;2023-01-16T02:17:57;98678.31;;;5.78;76.48
13934;BME280;7039;52.168;9.866;2023-01-16T02:20:46;98680.38;;;5.88;76.63
13934;BME280;7039;52.168;9.866;2023-01-16T02:23:44;98672.06;;;5.97;76.25
13934;BME280;7039;52.168;9.866;2023-01-16T02:29:40;98655.31;;;5.74;76.79
13934;BME280;7039;52.168;9.866;2023-01-16T02:32:22;98657.28;;;5.84;77.00
13934;BME280;7039;52.168;9.866;2023-01-16T02:35:10;98652.28;;;5.81;76.87
13934;BME280;7039;52.168;9.866;2023-01-16T02:37:44;98635.44;;;5.60;77.56
13934;BME280;7039;52.168;9.866;2023-01-16T02:40:26;98635.53;;;5.58;77.74
13934;BME280;7039;52.168;9.866;2023-01-16T02:43:03;98634.78;;;5.56;77.53
13934;BME280;7039;52.168;9.866;2023-01-16T02:45:39;98620.47;;;5.51;77.85
13934;BME280;7039;52.168;9.866;2023-01-16T02:48:12;98625.38;;;5.55;77.67
13934;BME280;7039;52.168;9.866;2023-01-16T02:50:49;98619.25;;;5.42;78.05
13934;BME280;7039;52.168;9.866;2023-01-16T02:53:22;98612.88;;;5.33;78.67
13934;BME280;7039;52.168;9.866;2023-01-16T02:55:53;98612.53;;;5.39;78.67
13934;BME280;7039;52.168;9.866;2023-01-16T02:58:22;98603.47;;;5.47;78.49
13934;BME280;7039;52.168;9.866;2023-01-16T03:00:51;98609.03;;;5.55;78.31
13934;BME280;7039;52.168;9.866;2023-01-16T03:03:34;98598.31;;;5.47;78.35
13934;BME280;7039;52.168;9.866;2023-01-16T03:06:09;98584.56;;;5.46;78.37
13934;BME280;7039;52.168;9.866;2023-01-16T03:08:45;98589.25;;;5.39;78.56
13934;BME280;7039;52.168;9.866;2023-01-16T03:11:18;98585.38;;;5.32;78.95
13934;BME280;7039;52.168;9.866;2023-01-16T03:14:07;98577.34;;;5.22;79.04
13934;BME280;7039;52.168;9.866;2023-01-16T03:16:43;98576.88;;;5.30;78.96
13934;BME280;7039;52.168;9.866;2023-01-16T03:19:26;98568.56;;;5.39;79.04
13934;BME280;7039;52.168;9.866;2023-01-16T03:22:06;98555.72;;;5.23;79.61
13934;BME280;7039;52.168;9.866;2023-01-16T03:24:49;98566.00;;;5.39;79.27
13934;BME280;7039;52.168;9.866;2023-01-16T03:27:31;98552.97;;;5.55;79.07
13934;BME280;7039;52.168;9.866;2023-01-16T03:30:08;98552.41;;;5.36;79.33
13934;BME280;7039;52.168;9.866;2023-01-16T03:32:40;98550.94;;;5.46;79.34
13934;BME280;7039;52.168;9.866;2023-01-16T03:35:13;98545.97;;;5.57;78.87
13934;BME280;7039;52.168;9.866;2023-01-16T03:37:45;98532.09;;;5.44;78.80
13934;BME280;7039;52.168;9.866;2023-01-16T03:40:17;98518.06;;;5.48;78.47
13934;BME280;7039;52.168;9.866;2023-01-16T03:42:50;98517.50;;;5.29;78.89
13934;BME280;7039;52.168;9.866;2023-01-16T03:45:21;98508.66;;;5.33;78.60
13934;BME280;7039;52.168;9.866;2023-01-16T03:47:52;98513.28;;;5.28;78.90
13934;BME280;7039;52.168;9.866;2023-01-16T03:50:23;98512.81;;;5.35;78.88
13934;BME280;7039;52.168;9.866;2023-01-16T03:52:54;98500.09;;;5.18;79.16
13934;BME280;7039;52.168;9.866;2023-01-16T03:55:29;98501.91;;;5.30;78.61
13934;BME280;7039;52.168;9.866;2023-01-16T03:57:59;98505.78;;;5.23;79.24
13934;BME280;7039;52.168;9.866;2023-01-16T04:00:36;98504.84;;;5.24;79.16
13934;BME280;7039;52.168;9.866;2023-01-16T04:03:05;98512.06;;;5.33;79.02
13934;BME280;7039;52.168;9.866;2023-01-16T04:05:41;98506.91;;;5.33;79.05
13934;BME280;7039;52.168;9.866;2023-01-16T04:08:14;98500.28;;;5.29;78.99
13934;BME280;7039;52.168;9.866;2023-01-16T04:10:43;98495.66;;;5.34;79.17
13934;BME280;7039;52.168;9.866;2023-01-16T04:13:12;98493.50;;;5.27;79.28
13934;BME280;7039;52.168;9.866;2023-01-16T04:15:44;98497.03;;;5.11;79.53
13934;BME280;7039;52.168;9.866;2023-01-16T04:18:12;98494.91;;;5.18;79.60
13934;BME280;7039;52.168;9.866;2023-01-16T04:20:42;98480.50;;;5.14;79.97
13934;BME280;7039;52.168;9.866;2023-01-16T04:23:11;98484.75;;;5.15;79.73
13934;BME280;7039;52.168;9.866;2023-01-16T04:25:38;98475.63;;;5.09;80.12
13934;BME280;7039;52.168;9.866;2023-01-16T04:28:04;98468.50;;;4.98;80.26
13934;BME280;7039;52.168;9.866;2023-01-16T04:30:31;98459.28;;;5.09;80.14
13934;BME280;7039;52.168;9.866;2023-01-16T04:33:00;98462.22;;;5.17;80.16
13934;BME280;7039;52.168;9.866;2023-01-16T04:35:27;98453.09;;;5.11;79.85
13934;BME280;7039;52.168;9.866;2023-01-16T04:37:55;98448.66;;;4.99;80.59
13934;BME280;7039;52.168;9.866;2023-01-16T04:40:21;98443.75;;;4.94;80.55
13934;BME280;7039;52.168;9.866;2023-01-16T04:42:48;98435.47;;;5.03;80.35
13934;BME280;7039;52.168;9.866;2023-01-16T04:45:14;98437.50;;;4.98;80.65
13934;BME280;7039;52.168;9.866;2023-01-16T04:47:45;98434.56;;;5.05;80.66
13934;BME280;7039;52.168;9.866;2023-01-16T04:50:11;98423.94;;;5.09;80.24
13934;BME280;7039;52.168;9.866;2023-01-16T04:52:38;98407.63;;;5.09;80.03
13934;BME280;7039;52.168;9.866;2023-01-16T04:55:06;98419.13;;;5.17;79.94
13934;BME280;7039;52.168;9.866;2023-01-16T04:57:33;98427.88;;;5.15;79.73
13934;BME280;7039;52.168;9.866;2023-01-16T05:00:00;98411.31;;;5.05;79.82
13934;BME280;7039;52.168;9.866;2023-01-16T05:02:26;98415.72;;;5.02;80.29
13934;BME280;7039;52.168;9.866;2023-01-16T05:04:52;98400.97;;;5.05;80.38
13934;BME280;7039;52.168;9.866;2023-01-16T05:07:19;98401.13;;;5.01;80.42
13934;BME280;7039;52.168;9.866;2023-01-16T05:09:45;98399.03;;;4.94;80.83
13934;BME280;7039;52.168;9.866;2023-01-16T05:12:13;98398.94;;;4.95;80.92
13934;BME280;7039;52.168;9.866;2023-01-16T05:14:40;98400.03;;;4.91;81.03
13934;BME280;7039;52.168;9.866;2023-01-16T05:17:06;98404.38;;;4.91;81.21
13934;BME280;7039;52.168;9.866;2023-01-16T05:19:32;98401.22;;;4.71;81.81
13934;BME280;7039;52.168;9.866;2023-01-16T05:21:59;98401.34;;;4.84;81.43
13934;BME280;7039;52.168;9.866;2023-01-16T05:24:25;98407.97;;;5.02;80.85
13934;BME280;7039;52.168;9.866;2023-01-16T05:26:52;98407.50;;;5.10;80.55
13934;BME280;7039;52.168;9.866;2023-01-16T05:29:20;98402.44;;;5.09;80.69
13934;BME280;7039;52.168;9.866;2023-01-16T05:31:46;98395.78;;;5.05;80.74
13934;BME280;7039;52.168;9.866;2023-01-16T05:34:12;98389.22;;;4.99;80.80
13934;BME280;7039;52.168;9.866;2023-01-16T05:36:39;98401.16;;;5.16;80.59
13934;BME280;7039;52.168;9.866;2023-01-16T05:39:05;98394.50;;;5.12;81.20
13934;BME280;7039;52.168;9.866;2023-01-16T05:41:32;98390.97;;;5.13;82.33
13934;BME280;7039;52.168;9.866;2023-01-16T05:43:58;98388.03;;;4.90;84.66
13934;BME280;7039;52.168;9.866;2023-01-16T05:46:26;98391.28;;;4.79;85.88
13934;BME280;7039;52.168;9.866;2023-01-16T05:48:53;98379.47;;;4.75;86.43
13934;BME280;7039;52.168;9.866;2023-01-16T05:51:19;98377.44;;;4.80;86.73
13934;BME280;7039;52.168;9.866;2023-01-16T05:53:49;98383.78;;;5.03;86.01
13934;BME280;7039;52.168;9.866;2023-01-16T05:56:17;98364.97;;;4.87;86.09
13934;BME280;7039;52.168;9.866;2023-01-16T05:58:45;98360.63;;;4.88;85.90
13934;BME280;7039;52.168;9.866;2023-01-16T06:01:12;98364.88;;;5.03;85.69
13934;BME280;7039;52.168;9.866;2023-01-16T06:03:40;98364.13;;;5.15;85.16
13934;BME280;7039;52.168;9.866;2023-01-16T06:06:06;98353.41;;;5.21;84.94
13934;BME280;7039;52.168;9.866;2023-01-16T06:08:33;98350.19;;;5.18;84.91
13934;BME280;7039;52.168;9.866;2023-01-16T06:10:59;98335.81;;;5.14;84.87
13934;BME280;7039;52.168;9.866;2023-01-16T06:13:26;98329.81;;;5.13;84.99
13934;BME280;7039;52.168;9.866;2023-01-16T06:15:52;98338.84;;;5.20;84.65
13934;BME280;7039;52.168;9.866;2023-01-16T06:18:19;98325.25;;;5.17;84.77
13934;BME280;7039;52.168;9.866;2023-01-16T06:20:47;98330.59;;;5.28;84.64
13934;BME280;7039;52.168;9.866;2023-01-16T06:23:14;98322.47;;;5.20;84.88
13934;BME280;7039;52.168;9.866;2023-01-16T06:25:40;98322.94;;;5.27;84.66
13934;BME280;7039;52.168;9.866;2023-01-16T06:28:07;98322.63;;;5.31;84.35
13934;BME280;7039;52.168;9.866;2023-01-16T06:30:34;98311.72;;;5.13;85.04
13934;BME280;7039;52.168;9.866;2023-01-16T06:33:00;98308.72;;;5.19;84.94
13934;BME280;7039;52.168;9.866;2023-01-16T06:35:27;98298.16;;;5.10;84.98
13934;BME280;7039;52.168;9.866;2023-01-16T06:37:55;98295.88;;;5.05;85.51
13934;BME280;7039;52.168;9.866;2023-01-16T06:40:21;98296.22;;;5.13;85.23
13934;BME280;7039;52.168;9.866;2023-01-16T06:42:48;98279.25;;;4.95;85.73
13934;BME280;7039;52.168;9.866;2023-01-16T06:45:14;98273.09;;;4.97;85.79
13934;BME280;7039;52.168;9.866;2023-01-16T06:47:41;98272.06;;;5.00;85.80
13934;BME280;7039;52.168;9.866;2023-01-16T06:50:09;98269.13;;;4.92;85.88
13934;BME280;7039;52.168;9.866;2023-01-16T06:52:35;98263.75;;;5.09;85.35
13934;BME280;7039;52.168;9.866;2023-01-16T06:55:06;98259.44;;;4.95;85.82
13934;BME280;7039;52.168;9.866;2023-01-16T06:57:34;98259.53;;;4.94;85.80
13934;BME280;7039;52.168;9.866;2023-01-16T07:00:00;98257.97;;;4.91;85.53
13934;BME280;7039;52.168;9.866;2023-01-16T07:02:27;98248.03;;;4.85;86.01
13934;BME280;7039;52.168;9.866;2023-01-16T07:04:54;98252.16;;;4.88;85.80
13934;BME280;7039;52.168;9.866;2023-01-16T07:07:20;98257.91;;;4.93;85.61
13934;BME280;7039;52.168;9.866;2023-01-16T07:09:47;98253.78;;;5.03;85.67
13934;BME280;7039;52.168;9.866;2023-01-16T07:12:15;98252.81;;;5.18;85.17
13934;BME280;7039;52.168;9.866;2023-01-16T07:14:41;98251.06;;;5.19;84.99
13934;BME280;7039;52.168;9.866;2023-01-16T07:17:26;98236.44;;;5.32;84.48
13934;BME280;7039;52.168;9.866;2023-01-16T07:20:10;98229.88;;;5.27;84.21
13934;BME280;7039;52.168;9.866;2023-01-16T07:22:55;98229.06;;;5.26;84.28
13934;BME280;7039;52.168;9.866;2023-01-16T07:25:25;98229.22;;;5.10;84.58
13934;BME280;7039;52.168;9.866;2023-01-16T07:27:55;98216.50;;;5.07;84.50
13934;BME280;7039;52.168;9.866;2023-01-16T07:30:22;98218.94;;;4.96;84.89
13934;BME280;7039;52.168;9.866;2023-01-16T07:32:48;98208.69;;;4.94;84.80
13934;BME280;7039;52.168;9.866;2023-01-16T07:35:15;98212.16;;;5.08;84.65
13934;BME280;7039;52.168;9.866;2023-01-16T07:37:42;98199.97;;;5.10;84.26
13934;BME280;7039;52.168;9.866;2023-01-16T07:40:09;98199.78;;;5.13;84.15
13934;BME280;7039;52.168;9.866;2023-01-16T07:42:36;98200.63;;;5.13;83.90
13934;BME280;7039;52.168;9.866;2023-01-16T07:45:05;98187.59;;;5.15;83.84
13934;BME280;7039;52.168;9.866;2023-01-16T07:47:33;98193.56;;;5.15;83.74
13934;BME280;7039;52.168;9.866;2023-01-16T07:49:59;98194.81;;;5.10;83.75
13934;BME280;7039;52.168;9.866;2023-01-16T07:52:26;98185.25;;;5.37;82.66
13934;BME280;7039;52.168;9.866;2023-01-16T07:54:52;98190.34;;;5.39;82.40
13934;BME280;7039;52.168;9.866;2023-01-16T07:57:19;98183.19;;;5.30;82.44
13934;BME280;7039;52.168;9.866;2023-01-16T07:59:45;98179.13;;;5.26;82.74
13934;BME280;7039;52.168;9.866;2023-01-16T08:02:13;98172.97;;;5.41;82.29
13934;BME280;7039;52.168;9.866;2023-01-16T08:04:40;98162.00;;;5.37;81.92
13934;BME280;7039;52.168;9.866;2023-01-16T08:07:06;98168.03;;;5.63;81.01
13934;BME280;7039;52.168;9.866;2023-01-16T08:09:33;98153.97;;;5.80;80.53
13934;BME280;7039;52.168;9.866;2023-01-16T08:11:59;98155.63;;;5.69;80.71
13934;BME280;7039;52.168;9.866;2023-01-16T08:14:26;98149.09;;;5.76;80.23
13934;BME280;7039;52.168;9.866;2023-01-16T08:16:52;98150.88;;;5.75;80.19
13934;BME280;7039;52.168;9.866;2023-01-16T08:19:20;98143.69;;;5.79;80.04
13934;BME280;7039;52.168;9.866;2023-01-16T08:21:46;98131.81;;;5.76;80.08
13934;BME280;7039;52.168;9.866;2023-01-16T08:24:13;98142.47;;;5.84;80.05
13934;BME280;7039;52.168;9.866;2023-01-16T08:26:40;98122.59;;;5.72;79.83
13934;BME280;7039;52.168;9.866;2023-01-16T08:29:08;98120.13;;;5.71;80.20
13934;BME280;7039;52.168;9.866;2023-01-16T08:31:35;98107.19;;;5.58;80.36
13934;BME280;7039;52.168;9.866;2023-01-16T08:34:02;98095.00;;;5.34;80.85
13934;BME280;7039;52.168;9.866;2023-01-16T08:36:30;98087.22;;;5.47;81.27
13934;BME280;7039;52.168;9.866;2023-01-16T08:38:56;98088.38;;;5.56;80.96
13934;BME280;7039;52.168;9.866;2023-01-16T08:41:23;98078.56;;;5.48;80.85
13934;BME280;7039;52.168;9.866;2023-01-16T08:44:07;98070.41;;;5.54;80.43
13934;BME280;7039;52.168;9.866;2023-01-16T08:46:54;98067.19;;;5.63;80.65
13934;BME280;7039;52.168;9.866;2023-01-16T08:49:40;98068.53;;;5.43;80.97
13934;BME280;7039;52.168;9.866;2023-01-16T08:52:31;98063.69;;;5.39;81.22
13934;BME280;7039;52.168;9.866;2023-01-16T08:54:59;98029.25;;;5.38;81.12
13934;BME280;7039;52.168;9.866;2023-01-16T08:57:27;98049.94;;;5.38;80.82
13934;BME280;7039;52.168;9.866;2023-01-16T08:59:54;98052.41;;;5.40;80.64
13934;BME280;7039;52.168;9.866;2023-01-16T09:02:20;98048.38;;;5.49;80.22
13934;BME280;7039;52.168;9.866;2023-01-16T09:04:47;98053.00;;;5.56;80.41
13934;BME280;7039;52.168;9.866;2023-01-16T09:07:14;98045.78;;;5.61;80.04
13934;BME280;7039;52.168;9.866;2023-01-16T09:09:42;98044.41;;;5.69;79.90
13934;BME280;7039;52.168;9.866;2023-01-16T09:12:09;98045.09;;;5.83;79.42
13934;BME280;7039;52.168;9.866;2023-01-16T09:14:54;98044.59;;;5.78;79.38
13934;BME280;7039;52.168;9.866;2023-01-16T09:17:22;98043.28;;;5.60;79.06
13934;BME280;7039;52.168;9.866;2023-01-16T09:19:48;98036.34;;;5.73;78.71
13934;BME280;7039;52.168;9.866;2023-01-16T09:22:15;98031.56;;;5.80;79.08
13934;BME280;7039;52.168;9.866;2023-01-16T09:24:43;98039.84;;;5.98;78.03
13934;BME280;7039;52.168;9.866;2023-01-16T09:27:10;98029.25;;;6.01;78.21
13934;BME280;7039;52.168;9.866;2023-01-16T09:29:38;98021.00;;;5.96;78.28
13934;BME280;7039;52.168;9.866;2023-01-16T09:32:04;98025.53;;;5.92;78.21
13934;BME280;7039;52.168;9.866;2023-01-16T09:34:33;98019.31;;;6.07;77.91
13934;BME280;7039;52.168;9.866;2023-01-16T09:37:00;98001.69;;;6.13;77.63
13934;BME280;7039;52.168;9.866;2023-01-16T09:39:27;98008.41;;;6.39;77.12
13934;BME280;7039;52.168;9.866;2023-01-16T09:42:05;97994.41;;;6.42;76.93
13934;BME280;7039;52.168;9.866;2023-01-16T09:44:51;97987.38;;;6.55;76.50
13934;BME280;7039;52.168;9.866;2023-01-16T09:47:22;97973.31;;;6.35;76.70
13934;BME280;7039;52.168;9.866;2023-01-16T09:49:53;97964.63;;;6.36;76.38
13934;BME280;7039;52.168;9.866;2023-01-16T09:52:24;97963.38;;;6.18;76.86
13934;BME280;7039;52.168;9.866;2023-01-16T09:55:17;97952.66;;;6.11;76.93
13934;BME280;7039;52.168;9.866;2023-01-16T09:58:05;97941.09;;;6.15;76.63
13934;BME280;7039;52.168;9.866;2023-01-16T10:00:49;97945.88;;;6.33;76.49
13934;BME280;7039;52.168;9.866;2023-01-16T10:03:16;97933.44;;;6.38;76.04
13934;BME280;7039;52.168;9.866;2023-01-16T10:05:48;97929.53;;;6.32;75.78
13934;BME280;7039;52.168;9.866;2023-01-16T10:08:23;97891.53;;;6.33;75.83
13934;BME280;7039;52.168;9.866;2023-01-16T10:10:57;97891.16;;;6.26;75.49
13934;BME280;7039;52.168;9.866;2023-01-16T10:13:39;97878.19;;;6.15;75.29
13934;BME280;7039;52.168;9.866;2023-01-16T10:16:13;97883.38;;;6.26;74.81
13934;BME280;7039;52.168;9.866;2023-01-16T10:18:51;97875.25;;;6.19;74.88
13934;BME280;7039;52.168;9.866;2023-01-16T10:21:41;97863.63;;;6.25;74.81
13934;BME280;7039;52.168;9.866;2023-01-16T10:24:18;97859.72;;;6.19;75.11
13934;BME280;7039;52.168;9.866;2023-01-16T10:26:55;97852.13;;;6.29;75.40
13934;BME280;7039;52.168;9.866;2023-01-16T10:29:26;97835.75;;;6.28;75.17
13934;BME280;7039;52.168;9.866;2023-01-16T10:31:58;97832.34;;;6.28;74.93
13934;BME280;7039;52.168;9.866;2023-01-16T10:34:31;97811.97;;;6.23;75.36
13934;BME280;7039;52.168;9.866;2023-01-16T10:37:01;97801.97;;;6.30;74.79
13934;BME280;7039;52.168;9.866;2023-01-16T10:39:31;97789.41;;;6.25;74.95
13934;BME280;7039;52.168;9.866;2023-01-16T10:42:00;97796.44;;;6.23;75.00
13934;BME280;7039;52.168;9.866;2023-01-16T10:44:57;97793.13;;;6.10;74.68
13934;BME280;7039;52.168;9.866;2023-01-16T10:47:43;97780.91;;;6.12;75.19
13934;BME280;7039;52.168;9.866;2023-01-16T10:50:27;97776.31;;;6.04;74.95
13934;BME280;7039;52.168;9.866;2023-01-16T10:52:54;97762.88;;;6.11;74.73
13934;BME280;7039;52.168;9.866;2023-01-16T10:55:22;97757.97;;;6.07;74.29
13934;BME280;7039;52.168;9.866;2023-01-16T10:57:51;97754.56;;;6.07;74.27
13934;BME280;7039;52.168;9.866;2023-01-16T11:00:21;97756.47;;;6.27;74.10
13934;BME280;7039;52.168;9.866;2023-01-16T11:02:57;97747.28;;;6.23;73.43
13934;BME280;7039;52.168;9.866;2023-01-16T11:05:27;97745.63;;;6.11;73.74
13934;BME280;7039;52.168;9.866;2023-01-16T11:07:56;97718.91;;;6.11;73.40
13934;BME280;7039;52.168;9.866;2023-01-16T11:10:27;97720.09;;;6.18;73.42
13934;BME280;7039;52.168;9.866;2023-01-16T11:12:55;97701.28;;;6.16;73.39
13934;BME280;7039;52.168;9.866;2023-01-16T11:15:59;97680.22;;;6.32;72.95
13934;BME280;7039;52.168;9.866;2023-01-16T11:18:43;97661.41;;;6.18;72.21
13934;BME280;7039;52.168;9.866;2023-01-16T11:21:15;97664.69;;;6.32;71.95
13934;BME280;7039;52.168;9.866;2023-01-16T11:23:43;97665.97;;;6.37;71.72
13934;BME280;7039;52.168;9.866;2023-01-16T11:26:11;97656.31;;;6.51;72.40
13934;BME280;7039;52.168;9.866;2023-01-16T11:28:41;97655.59;;;6.48;71.94
13934;BME280;7039;52.168;9.866;2023-01-16T11:31:14;97648.53;;;6.51;72.01
13934;BME280;7039;52.168;9.866;2023-01-16T11:33:46;97632.44;;;6.24;71.94
13934;BME280;7039;52.168;9.866;2023-01-16T11:36:16;97609.72;;;6.39;71.86
13934;BME280;7039;52.168;9.866;2023-01-16T11:38:45;97620.34;;;6.25;71.94
13934;BME280;7039;52.168;9.866;2023-01-16T11:41:17;97610.44;;;6.30;71.95
13934;BME280;7039;52.168;9.866;2023-01-16T11:43:47;97610.56;;;6.28;71.21
13934;BME280;7039;52.168;9.866;2023-01-16T11:46:49;97609.72;;;6.39;71.66
13934;BME280;7039;52.168;9.866;2023-01-16T11:49:17;97604.28;;;6.42;71.25
13934;BME280;7039;52.168;9.866;2023-01-16T11:51:49;97596.16;;;6.47;71.57
13934;BME280;7039;52.168;9.866;2023-01-16T11:54:23;97582.56;;;6.34;71.49
13934;BME280;7039;52.168;9.866;2023-01-16T11:57:00;97584.66;;;6.40;71.55
13934;BME280;7039;52.168;9.866;2023-01-16T11:59:41;97573.34;;;6.52;71.98
13934;BME280;7039;52.168;9.866;2023-01-16T12:02:26;97557.91;;;6.51;71.06
13934;BME280;7039;52.168;9.866;2023-01-16T12:05:02;97572.84;;;6.47;71.16
13934;BME280;7039;52.168;9.866;2023-01-16T12:08:03;97563.38;;;6.68;71.12
13934;BME280;7039;52.168;9.866;2023-01-16T12:10:39;97554.94;;;6.55;71.78
13934;BME280;7039;52.168;9.866;2023-01-16T12:13:09;97542.75;;;6.46;71.82
13934;BME280;7039;52.168;9.866;2023-01-16T12:16:17;97536.81;;;6.55;71.84
13934;BME280;7039;52.168;9.866;2023-01-16T12:19:12;97533.28;;;6.56;72.07
13934;BME280;7039;52.168;9.866;2023-01-16T12:21:49;97521.06;;;6.47;72.63
13934;BME280;7039;52.168;9.866;2023-01-16T12:24:39;97496.09;;;6.57;72.35
13934;BME280;7039;52.168;9.866;2023-01-16T12:27:20;97504.78;;;6.56;72.30
13934;BME280;7039;52.168;9.866;2023-01-16T12:30:00;97496.47;;;6.53;72.41
13934;BME280;7039;52.168;9.866;2023-01-16T12:32:43;97484.97;;;6.66;72.09
13934;BME280;7039;52.168;9.866;2023-01-16T12:35:33;97478.94;;;6.77;71.89
13934;BME280;7039;52.168;9.866;2023-01-16T12:38:11;97486.16;;;6.83;71.40
13934;BME280;7039;52.168;9.866;2023-01-16T12:40:49;97449.28;;;6.91;71.27
13934;BME280;7039;52.168;9.866;2023-01-16T12:43:22;97467.84;;;6.96;70.87
13934;BME280;7039;52.168;9.866;2023-01-16T12:45:55;97466.59;;;7.21;70.17
13934;BME280;7039;52.168;9.866;2023-01-16T12:48:37;97461.84;;;7.26;70.07
13934;BME280;7039;52.168;9.866;2023-01-16T12:51:31;97448.72;;;7.18;69.43
13934;BME280;7039;52.168;9.866;2023-01-16T12:54:18;97470.28;;;7.49;69.37
13934;BME280;7039;52.168;9.866;2023-01-16T12:56:56;97453.63;;;7.52;68.59
13934;BME280;7039;52.168;9.866;2023-01-16T12:59:28;97436.44;;;7.61;68.59
13934;BME280;7039;52.168;9.866;2023-01-16T13:02:07;97451.75;;;7.83;68.54
13934;BME280;7039;52.168;9.866;2023-01-16T13:04:38;97429.66;;;7.79;68.11
13934;BME280;7039;52.168;9.866;2023-01-16T13:07:14;97429.94;;;8.15;67.76
13934;BME280;7039;52.168;9.866;2023-01-16T13:09:44;97432.00;;;8.02;67.92
13934;BME280;7039;52.168;9.866;2023-01-16T13:12:17;97426.25;;;7.88;67.93
13934;BME280;7039;52.168;9.866;2023-01-16T13:15:05;97414.91;;;7.80;68.50
13934;BME280;7039;52.168;9.866;2023-01-16T13:17:40;97413.28;;;7.88;68.06
13934;BME280;7039;52.168;9.866;2023-01-16T13:20:10;97407.38;;;7.57;68.64
13934;BME280;7039;52.168;9.866;2023-01-16T13:22:43;97402.44;;;7.54;68.39
13934;BME280;7039;52.168;9.866;2023-01-16T13:25:17;97399.69;;;7.46;69.35
13934;BME280;7039;52.168;9.866;2023-01-16T13:27:50;97397.63;;;7.40;68.98
13934;BME280;7039;52.168;9.866;2023-01-16T13:30:20;97397.81;;;7.17;69.55
13934;BME280;7039;52.168;9.866;2023-01-16T13:32:50;97409.28;;;7.15;69.84
13934;BME280;7039;52.168;9.866;2023-01-16T13:35:21;97399.31;;;7.10;70.07
13934;BME280;7039;52.168;9.866;2023-01-16T13:41:13;97386.72;;;6.96;70.57
13934;BME280;7039;52.168;9.866;2023-01-16T13:43:44;97384.81;;;6.98;70.83
13934;BME280;7039;52.168;9.866;2023-01-16T13:46:30;97390.00;;;6.77;70.89
13934;BME280;7039;52.168;9.866;2023-01-16T13:48:59;97385.63;;;6.98;70.64
13934;BME280;7039;52.168;9.866;2023-01-16T13:51:27;97381.78;;;6.93;70.30